createdAt,value
2022-11-13T00:02:53.495Z,18.17
2022-11-13T00:05:53.690Z,18.15
2022-11-13T00:09:03.331Z,18.27
2022-11-13T00:12:10.306Z,18.19
2022-11-13T00:15:25.434Z,18.16
2022-11-13T00:18:26.884Z,18.03
2022-11-13T00:21:40.409Z,18.03
2022-11-13T00:24:40.719Z,18.06
2022-11-13T00:27:47.350Z,18.03
2022-11-13T00:30:54.313Z,18.05
2022-11-13T00:34:09.525Z,18.05
2022-11-13T00:37:22.398Z,18.01
2022-11-13T00:40:22.729Z,17.94
2022-11-13T00:43:30.460Z,17.94
2022-11-13T00:46:30.879Z,17.94
2022-11-13T00:49:37.403Z,18.00
2022-11-13T00:52:44.423Z,18.08
2022-11-13T00:55:53.311Z,18.14
2022-11-13T00:59:00.348Z,18.10
2022-11-13T01:02:01.600Z,18.14
2022-11-13T01:05:08.407Z,18.04
2022-11-13T01:08:16.413Z,18.12
2022-11-13T01:11:21.720Z,18.09
2022-11-13T01:14:28.346Z,18.12
2022-11-13T01:17:28.676Z,17.99
2022-11-13T01:20:36.417Z,18.03
2022-11-13T01:23:36.746Z,18.02
2022-11-13T01:26:43.346Z,18.07
2022-11-13T01:29:45.813Z,18.08
2022-11-13T01:32:52.336Z,18.16
2022-11-13T01:35:52.698Z,18.17
2022-11-13T01:39:01.329Z,18.08
2022-11-13T01:42:09.384Z,18.07
2022-11-13T01:45:47.568Z,18.09
2022-11-13T01:49:01.382Z,17.99
2022-11-13T01:52:10.985Z,18.08
2022-11-13T01:55:23.327Z,18.22
2022-11-13T01:58:23.964Z,18.37
2022-11-13T02:01:30.493Z,18.28
2022-11-13T02:04:38.424Z,18.42
2022-11-13T02:07:39.722Z,18.41
2022-11-13T02:10:46.343Z,18.53
2022-11-13T02:13:54.438Z,18.57
2022-11-13T02:17:08.298Z,18.78
2022-11-13T02:20:18.485Z,18.83
2022-11-13T02:24:03.279Z,18.79
2022-11-13T02:27:17.391Z,18.89
2022-11-13T02:30:28.240Z,19.02
2022-11-13T02:33:44.750Z,19.19
2022-11-13T02:36:52.485Z,19.45
2022-11-13T02:39:52.682Z,19.53
2022-11-13T02:42:59.402Z,19.60
2022-11-13T02:45:59.696Z,19.69
2022-11-13T02:49:07.376Z,19.80
2022-11-13T02:52:07.670Z,19.84
2022-11-13T02:55:15.299Z,20.15
2022-11-13T02:58:22.512Z,20.11
2022-11-13T03:01:30.361Z,20.14
2022-11-13T03:05:05.389Z,20.25
2022-11-13T03:07:57.563Z,20.26
2022-11-13T03:11:04.414Z,20.44
2022-11-13T03:14:18.238Z,20.62
2022-11-13T03:17:25.484Z,20.89
2022-11-13T03:20:25.671Z,21.02
2022-11-13T03:23:33.401Z,21.14
2022-11-13T03:26:33.659Z,21.30
2022-11-13T03:29:40.403Z,21.41
2022-11-13T03:32:40.704Z,21.67
2022-11-13T03:35:48.403Z,21.93
2022-11-13T03:38:49.679Z,22.21
2022-11-13T03:41:57.386Z,22.62
2022-11-13T03:45:04.385Z,23.21
2022-11-13T03:48:05.876Z,23.51
2022-11-13T03:51:12.430Z,23.67
2022-11-13T03:54:13.606Z,24.18
2022-11-13T03:57:21.376Z,24.61
2022-11-13T04:00:28.361Z,24.88
2022-11-13T04:03:35.383Z,25.40
2022-11-13T04:06:43.364Z,25.94
2022-11-13T04:09:44.714Z,26.24
2022-11-13T04:12:51.279Z,26.01
2022-11-13T04:16:05.251Z,26.01
2022-11-13T04:19:12.390Z,26.23
2022-11-13T04:22:13.676Z,26.49
2022-11-13T04:25:21.358Z,26.56
2022-11-13T04:28:21.724Z,26.61
2022-11-13T04:31:29.386Z,26.74
2022-11-13T04:34:29.678Z,26.38
2022-11-13T04:37:37.375Z,26.84
2022-11-13T04:40:44.300Z,27.05
2022-11-13T04:43:44.573Z,26.79
2022-11-13T04:46:51.313Z,26.99
2022-11-13T04:49:51.559Z,27.28
2022-11-13T04:52:59.307Z,26.86
2022-11-13T04:55:59.688Z,27.27
2022-11-13T04:59:07.382Z,27.00
2022-11-13T05:02:07.824Z,27.25
2022-11-13T05:05:14.356Z,27.08
2022-11-13T05:08:21.385Z,27.08
2022-11-13T05:11:22.813Z,27.36
2022-11-13T05:14:29.377Z,27.15
2022-11-13T05:17:36.364Z,27.53
2022-11-13T05:20:37.576Z,27.20
2022-11-13T05:23:45.381Z,27.62
2022-11-13T05:26:45.624Z,27.35
2022-11-13T05:29:52.375Z,27.34
2022-11-13T05:32:54.164Z,27.81
2022-11-13T05:35:55.373Z,27.70
2022-11-13T05:38:56.729Z,27.84
2022-11-13T05:42:03.299Z,27.74
2022-11-13T05:45:03.678Z,27.76
2022-11-13T05:48:10.268Z,27.79
2022-11-13T05:51:12.627Z,27.50
2022-11-13T05:54:20.392Z,27.47
2022-11-13T05:57:21.643Z,27.22
2022-11-13T06:00:29.376Z,26.97
2022-11-13T06:03:37.380Z,27.05
2022-11-13T06:06:37.801Z,27.34
2022-11-13T06:09:44.380Z,27.17
2022-11-13T06:12:44.527Z,27.92
2022-11-13T06:15:51.371Z,27.70
2022-11-13T06:19:02.367Z,27.56
2022-11-13T06:22:09.348Z,27.21
2022-11-13T06:25:17.379Z,27.34
2022-11-13T06:28:18.842Z,27.50
2022-11-13T06:31:33.390Z,27.72
2022-11-13T06:34:41.379Z,27.79
2022-11-13T06:37:41.536Z,28.00
2022-11-13T06:40:48.285Z,28.37
2022-11-13T06:43:51.979Z,28.02
2022-11-13T06:46:58.369Z,28.29
2022-11-13T06:50:05.275Z,28.53
2022-11-13T06:53:12.280Z,28.05
2022-11-13T06:56:20.359Z,28.33
2022-11-13T06:59:27.280Z,28.75
2022-11-13T07:02:27.555Z,28.02
2022-11-13T07:05:35.364Z,27.82
2022-11-13T07:08:44.380Z,28.35
2022-11-13T07:11:52.389Z,28.76
2022-11-13T07:15:07.371Z,28.68
2022-11-13T07:18:08.387Z,28.37
2022-11-13T07:21:26.368Z,28.21
2022-11-13T07:24:33.372Z,27.99
2022-11-13T07:27:41.258Z,28.19
2022-11-13T07:30:49.372Z,28.48
2022-11-13T07:33:57.374Z,28.24
2022-11-13T07:37:04.376Z,28.18
2022-11-13T07:40:11.297Z,28.22
2022-11-13T07:43:19.385Z,28.68
2022-11-13T07:46:26.376Z,28.77
2022-11-13T07:49:26.591Z,28.89
2022-11-13T07:52:34.298Z,28.83
2022-11-13T07:55:43.389Z,28.52
2022-11-13T07:58:51.458Z,27.80
2022-11-13T08:01:52.837Z,28.01
2022-11-13T08:05:00.293Z,28.15
2022-11-13T08:08:01.820Z,28.48
2022-11-13T08:11:08.295Z,28.07
2022-11-13T08:14:22.237Z,28.39
2022-11-13T08:17:29.291Z,28.28
2022-11-13T08:20:30.638Z,28.45
2022-11-13T08:23:37.317Z,28.63
2022-11-13T08:26:37.671Z,28.50
2022-11-13T08:29:45.278Z,28.21
2022-11-13T08:32:53.403Z,28.19
2022-11-13T08:35:55.558Z,28.33
2022-11-13T08:39:03.433Z,28.04
2022-11-13T08:42:04.973Z,28.42
2022-11-13T08:45:11.380Z,28.46
2022-11-13T08:48:19.304Z,28.16
2022-11-13T08:51:26.282Z,28.48
2022-11-13T08:54:33.398Z,28.75
2022-11-13T08:57:33.724Z,28.35
2022-11-13T09:00:41.311Z,28.50
2022-11-13T09:03:49.392Z,28.73
2022-11-13T09:06:56.414Z,28.78
2022-11-13T09:10:03.526Z,28.61
2022-11-13T09:13:13.388Z,28.74
2022-11-13T09:16:26.266Z,28.51
2022-11-13T09:19:34.319Z,28.59
2022-11-13T09:22:35.685Z,28.61
2022-11-13T09:25:45.260Z,28.57
2022-11-13T09:28:45.694Z,28.73
2022-11-13T09:31:52.364Z,28.43
2022-11-13T09:34:52.794Z,27.65
2022-11-13T09:38:00.380Z,28.28
2022-11-13T09:41:13.284Z,28.15
2022-11-13T09:44:42.384Z,28.15
2022-11-13T09:47:49.797Z,28.18
2022-11-13T09:50:57.295Z,27.94
2022-11-13T09:53:58.645Z,27.96
2022-11-13T09:57:10.380Z,27.84
2022-11-13T10:00:28.946Z,27.71
2022-11-13T10:04:08.882Z,27.76
2022-11-13T10:07:31.774Z,27.72
2022-11-13T10:10:55.574Z,27.71
2022-11-13T10:14:08.085Z,27.72
2022-11-13T10:17:39.901Z,27.59
2022-11-13T10:20:52.315Z,27.42
2022-11-13T10:23:58.449Z,27.37
2022-11-13T10:27:07.493Z,27.27
2022-11-13T10:30:17.223Z,27.20
2022-11-13T10:33:33.431Z,27.07
2022-11-13T10:36:51.564Z,27.01
2022-11-13T10:40:02.439Z,26.97
2022-11-13T10:43:19.233Z,26.87
2022-11-13T10:46:38.398Z,26.66
2022-11-13T10:49:39.938Z,26.61
2022-11-13T10:52:47.366Z,26.49
2022-11-13T10:55:58.371Z,26.40
2022-11-13T10:59:10.970Z,26.36
2022-11-13T11:02:28.280Z,26.25
2022-11-13T11:05:39.426Z,26.16
2022-11-13T11:08:47.357Z,25.98
2022-11-13T11:12:06.945Z,25.84
2022-11-13T11:15:31.666Z,25.86
2022-11-13T11:18:49.679Z,25.84
2022-11-13T11:22:03.343Z,25.71
2022-11-13T11:25:21.942Z,25.69
2022-11-13T11:28:44.286Z,25.52
2022-11-13T11:32:11.728Z,25.50
2022-11-13T11:35:30.488Z,25.40
2022-11-13T11:38:49.655Z,25.29
2022-11-13T11:42:18.292Z,25.32
2022-11-13T11:45:39.355Z,25.18
2022-11-13T11:48:39.550Z,25.14
2022-11-13T11:51:56.374Z,24.99
2022-11-13T11:55:21.251Z,25.00
2022-11-13T11:58:40.368Z,24.91
2022-11-13T12:02:14.276Z,24.91
2022-11-13T12:05:42.320Z,24.81
2022-11-13T12:09:12.748Z,24.69
2022-11-13T12:12:25.255Z,24.60
2022-11-13T12:16:03.678Z,24.61
2022-11-13T12:19:13.247Z,24.43
2022-11-13T12:22:40.512Z,24.39
2022-11-13T12:26:20.266Z,24.32
2022-11-13T12:29:46.360Z,24.23
2022-11-13T12:32:49.635Z,24.20
2022-11-13T12:36:01.387Z,24.14
2022-11-13T12:39:37.758Z,23.97
2022-11-13T12:42:59.369Z,23.94
2022-11-13T12:46:10.276Z,23.80
2022-11-13T12:49:35.273Z,23.81
2022-11-13T12:52:35.809Z,23.77
2022-11-13T12:55:46.289Z,23.67
2022-11-13T12:59:03.495Z,23.55
2022-11-13T13:02:17.408Z,23.56
2022-11-13T13:05:46.684Z,23.48
2022-11-13T13:08:58.376Z,23.37
2022-11-13T13:12:33.365Z,23.29
2022-11-13T13:15:52.166Z,23.31
2022-11-13T13:18:53.293Z,23.25
2022-11-13T13:21:54.683Z,23.06
2022-11-13T13:25:14.458Z,22.97
2022-11-13T13:28:22.371Z,22.95
2022-11-13T13:31:51.408Z,22.96
2022-11-13T13:35:00.557Z,22.92
2022-11-13T13:38:29.720Z,22.88
2022-11-13T13:41:32.109Z,22.83
2022-11-13T13:44:47.255Z,22.80
2022-11-13T13:47:50.694Z,22.77
2022-11-13T13:51:02.248Z,22.68
2022-11-13T13:54:08.287Z,22.66
2022-11-13T13:57:16.281Z,22.58
2022-11-13T14:00:27.433Z,22.60
2022-11-13T14:03:30.373Z,22.42
2022-11-13T14:06:37.401Z,22.44
2022-11-13T14:09:46.411Z,22.46
2022-11-13T14:12:48.438Z,22.37
2022-11-13T14:15:56.388Z,22.30
2022-11-13T14:19:13.333Z,22.40
2022-11-13T14:22:25.365Z,22.25
2022-11-13T14:25:29.745Z,22.26
2022-11-13T14:28:38.353Z,22.33
2022-11-13T14:31:38.695Z,22.08
2022-11-13T14:34:46.435Z,22.02
2022-11-13T14:37:49.523Z,21.96
2022-11-13T14:41:02.370Z,21.97
2022-11-13T14:44:03.023Z,21.88
2022-11-13T14:47:34.358Z,21.85
2022-11-13T14:50:37.227Z,21.83
2022-11-13T14:53:56.382Z,21.80
2022-11-13T14:56:56.742Z,21.75
2022-11-13T15:00:03.483Z,21.71
2022-11-13T15:03:14.387Z,21.64
2022-11-13T15:06:29.741Z,21.60
2022-11-13T15:09:38.259Z,21.55
2022-11-13T15:12:45.714Z,21.55
2022-11-13T15:16:00.247Z,21.61
2022-11-13T15:19:11.286Z,21.58
2022-11-13T15:22:26.541Z,21.47
2022-11-13T15:25:35.337Z,21.39
2022-11-13T15:28:35.697Z,21.43
2022-11-13T15:31:46.278Z,21.37
2022-11-13T15:34:46.808Z,21.31
2022-11-13T15:37:53.327Z,21.36
2022-11-13T15:40:53.773Z,21.29
2022-11-13T15:44:03.322Z,21.36
2022-11-13T15:47:03.664Z,21.30
2022-11-13T15:50:14.944Z,21.24
2022-11-13T15:53:26.518Z,21.26
2022-11-13T15:56:26.906Z,21.23
2022-11-13T15:59:34.257Z,21.23
2022-11-13T16:02:36.507Z,21.20
2022-11-13T16:05:43.297Z,21.23
2022-11-13T16:08:45.183Z,21.22
2022-11-13T16:11:52.343Z,21.22
2022-11-13T16:15:07.176Z,21.16
2022-11-13T16:18:29.341Z,21.20
2022-11-13T16:21:37.319Z,21.25
2022-11-13T16:24:37.614Z,21.12
2022-11-13T16:27:44.317Z,21.15
2022-11-13T16:30:45.641Z,21.12
2022-11-13T16:33:53.262Z,21.10
2022-11-13T16:36:54.639Z,21.09
2022-11-13T16:40:01.344Z,21.09
2022-11-13T16:43:02.829Z,21.03
2022-11-13T16:46:09.275Z,21.04
2022-11-13T16:49:09.783Z,20.91
2022-11-13T16:52:16.325Z,20.96
2022-11-13T16:55:23.323Z,20.95
2022-11-13T16:58:30.324Z,21.04
2022-11-13T17:01:38.353Z,21.07
2022-11-13T17:04:39.519Z,21.05
2022-11-13T17:07:46.231Z,21.11
2022-11-13T17:10:47.686Z,21.20
2022-11-13T17:13:55.339Z,21.20
2022-11-13T17:17:01.802Z,21.21
2022-11-13T17:20:02.341Z,21.26
2022-11-13T17:23:09.350Z,21.36
2022-11-13T17:26:11.742Z,21.34
2022-11-13T17:29:18.339Z,21.40
2022-11-13T17:32:18.642Z,21.29
2022-11-13T17:35:25.353Z,21.39
2022-11-13T17:38:26.055Z,21.48
2022-11-13T17:41:33.324Z,21.47
2022-11-13T17:44:33.577Z,21.42
2022-11-13T17:47:42.338Z,21.52
2022-11-13T17:50:42.812Z,21.58
2022-11-13T17:53:50.333Z,21.60
2022-11-13T17:56:50.757Z,21.60
2022-11-13T17:59:58.327Z,21.68
2022-11-13T18:02:58.790Z,21.72
2022-11-13T18:06:05.311Z,21.77
2022-11-13T18:09:12.311Z,21.75
2022-11-13T18:12:12.712Z,21.72
2022-11-13T18:15:20.318Z,21.72
2022-11-13T18:18:28.721Z,21.81
2022-11-13T18:21:32.312Z,21.66
2022-11-13T18:24:39.474Z,21.68
2022-11-13T18:27:47.340Z,21.69
2022-11-13T18:30:50.774Z,21.72
2022-11-13T18:34:04.376Z,21.74
2022-11-13T18:37:05.778Z,21.78
2022-11-13T18:40:12.345Z,21.74
2022-11-13T18:43:20.336Z,21.74
2022-11-13T18:46:22.662Z,21.88
2022-11-13T18:49:29.337Z,21.85
2022-11-13T18:52:29.787Z,21.85
2022-11-13T18:55:36.341Z,21.86
2022-11-13T18:58:44.346Z,21.83
2022-11-13T19:01:44.753Z,21.87
2022-11-13T19:04:52.335Z,21.82
2022-11-13T19:07:52.523Z,21.89
2022-11-13T19:10:59.313Z,21.81
2022-11-13T19:13:59.924Z,21.68
2022-11-13T19:17:06.510Z,21.67
2022-11-13T19:20:08.721Z,21.79
2022-11-13T19:23:15.251Z,21.83
2022-11-13T19:26:22.244Z,21.88
2022-11-13T19:29:22.626Z,21.89
2022-11-13T19:32:29.245Z,21.88
2022-11-13T19:35:29.741Z,21.66
2022-11-13T19:38:36.251Z,21.70
2022-11-13T19:41:37.598Z,21.77
2022-11-13T19:44:44.231Z,21.73
2022-11-13T19:47:52.370Z,21.40
2022-11-13T19:50:53.542Z,21.18
2022-11-13T19:54:01.234Z,20.98
2022-11-13T19:57:01.490Z,20.91
2022-11-13T20:00:08.229Z,20.75
2022-11-13T20:03:09.445Z,20.59
2022-11-13T20:06:16.217Z,20.57
2022-11-13T20:09:16.644Z,20.72
2022-11-13T20:12:24.238Z,20.54
2022-11-13T20:15:25.112Z,20.90
2022-11-13T20:18:32.343Z,20.92
2022-11-13T20:21:32.666Z,20.70
2022-11-13T20:24:39.227Z,20.86
2022-11-13T20:27:47.449Z,20.90
2022-11-13T20:30:47.653Z,20.89
2022-11-13T20:33:56.215Z,20.68
2022-11-13T20:36:56.622Z,20.86
2022-11-13T20:40:05.304Z,21.10
2022-11-13T20:43:12.204Z,20.88
2022-11-13T20:46:21.329Z,20.92
2022-11-13T20:49:23.200Z,20.96
2022-11-13T20:52:31.241Z,20.69
2022-11-13T20:55:38.223Z,20.24
2022-11-13T20:58:39.101Z,20.37
2022-11-13T21:01:46.301Z,20.15
2022-11-13T21:04:47.540Z,20.26
2022-11-13T21:07:54.216Z,20.31
2022-11-13T21:10:54.546Z,20.33
2022-11-13T21:14:03.227Z,20.24
2022-11-13T21:17:17.772Z,20.28
2022-11-13T21:20:18.648Z,20.01
2022-11-13T21:23:25.326Z,20.45
2022-11-13T21:26:33.239Z,20.45
2022-11-13T21:29:40.285Z,20.33
2022-11-13T21:32:41.514Z,20.60
2022-11-13T21:35:48.271Z,19.93
2022-11-13T21:38:51.734Z,19.93
2022-11-13T21:41:58.186Z,20.04
2022-11-13T21:44:59.512Z,19.99
2022-11-13T21:48:08.233Z,20.30
2022-11-13T21:51:15.307Z,20.10
2022-11-13T21:54:16.688Z,20.29
2022-11-13T21:57:24.303Z,19.67
2022-11-13T22:00:25.575Z,20.20
2022-11-13T22:03:32.227Z,19.92
2022-11-13T22:06:40.724Z,19.70
2022-11-13T22:09:48.324Z,20.26
2022-11-13T22:12:48.581Z,19.85
2022-11-13T22:15:55.202Z,20.04
2022-11-13T22:19:11.642Z,19.97
2022-11-13T22:22:11.449Z,19.89
2022-11-13T22:25:19.222Z,20.26
2022-11-13T22:28:20.500Z,20.42
2022-11-13T22:31:47.196Z,20.51
2022-11-13T22:34:48.701Z,19.95
2022-11-13T22:37:55.196Z,20.00
2022-11-13T22:40:55.925Z,19.22
2022-11-13T22:44:08.279Z,19.11
2022-11-13T22:47:09.522Z,19.27
2022-11-13T22:50:16.289Z,19.08
2022-11-13T22:53:16.594Z,19.07
2022-11-13T22:56:28.319Z,18.94
2022-11-13T22:59:35.257Z,18.76
2022-11-13T23:02:47.104Z,18.74
2022-11-13T23:05:55.205Z,19.41
2022-11-13T23:08:56.551Z,19.03
2022-11-13T23:12:03.285Z,19.18
2022-11-13T23:15:10.303Z,19.50
2022-11-13T23:18:16.709Z,19.66
2022-11-13T23:21:19.316Z,19.56
2022-11-13T23:24:26.209Z,19.44
2022-11-13T23:27:33.289Z,19.75
2022-11-13T23:30:34.481Z,19.58
2022-11-13T23:33:42.215Z,19.44
2022-11-13T23:36:43.439Z,19.72
2022-11-13T23:39:51.295Z,19.69
2022-11-13T23:42:55.958Z,19.62
2022-11-13T23:46:03.222Z,19.17
2022-11-13T23:49:10.314Z,19.68
2022-11-13T23:52:10.624Z,19.61
2022-11-13T23:55:18.289Z,19.83
2022-11-13T23:58:22.172Z,19.88
